Terminal Aerodrome Forecast
Issued by NWS Wichita, KS

Home | Current Version | Previous Version | Graphics & Text | Print | Product List | Glossary Off
Versions: 1 2 3 4 5 6 7 8 9 10 11 12

000
FTUS43 KICT 140500
TAFICT
TAF
KICT 140520Z 1406/1506 VRB04KT P6SM SCT100
     FM141500 24006KT P6SM SCT100
     FM142000 01017G25KT P6SM BKN100=

USA.gov is the U.S. government's official web portal to all federal, state and local government web resources and services.